createdAt,value
2018-07-08T00:01:26.737Z,13.80
2018-07-08T00:06:39.029Z,13.80
2018-07-08T00:09:16.134Z,13.80
2018-07-08T00:11:53.119Z,13.70
2018-07-08T00:14:37.579Z,13.70
2018-07-08T00:17:12.793Z,13.70
2018-07-08T00:19:56.345Z,13.70
2018-07-08T00:22:32.288Z,13.70
2018-07-08T00:25:08.861Z,13.60
2018-07-08T00:27:44.508Z,13.60
2018-07-08T00:30:23.553Z,13.60
2018-07-08T00:33:01.645Z,13.60
2018-07-08T00:35:43.027Z,13.50
2018-07-08T00:38:19.194Z,13.50
2018-07-08T00:40:54.822Z,13.50
2018-07-08T00:43:29.062Z,13.50
2018-07-08T00:46:06.385Z,13.50
2018-07-08T00:48:41.488Z,13.40
2018-07-08T00:51:22.273Z,13.30
2018-07-08T00:53:57.716Z,13.40
2018-07-08T00:56:36.065Z,13.40
2018-07-08T00:59:12.359Z,13.40
2018-07-08T01:01:47.691Z,13.30
2018-07-08T01:04:25.505Z,13.30
2018-07-08T01:09:46.736Z,13.30
2018-07-08T01:12:24.964Z,13.20
2018-07-08T01:15:08.057Z,13.20
2018-07-08T01:17:52.481Z,13.20
2018-07-08T01:20:29.184Z,13.20
2018-07-08T01:23:11.096Z,13.20
2018-07-08T01:26:00.725Z,13.20
2018-07-08T01:28:45.896Z,13.20
2018-07-08T01:31:25.486Z,13.20
2018-07-08T01:34:02.378Z,13.20
2018-07-08T01:36:40.478Z,13.10
2018-07-08T01:39:17.539Z,13.10
2018-07-08T01:41:53.307Z,13.10
2018-07-08T01:44:31.837Z,13.00
2018-07-08T01:47:12.236Z,13.00
2018-07-08T01:49:50.072Z,13.00
2018-07-08T01:52:26.188Z,13.00
2018-07-08T01:55:03.686Z,13.00
2018-07-08T01:57:40.956Z,13.00
2018-07-08T02:00:16.217Z,13.00
2018-07-08T02:02:50.821Z,13.00
2018-07-08T02:05:26.837Z,13.00
2018-07-08T02:08:07.755Z,13.10
2018-07-08T02:10:46.194Z,13.10
2018-07-08T02:13:26.743Z,13.20
2018-07-08T02:16:03.194Z,13.20
2018-07-08T02:18:40.093Z,13.20
2018-07-08T02:21:18.099Z,13.10
2018-07-08T02:23:54.735Z,13.10
2018-07-08T02:26:36.883Z,13.10
2018-07-08T02:29:22.304Z,13.10
2018-07-08T02:34:41.578Z,13.10
2018-07-08T02:37:18.908Z,13.00
2018-07-08T02:39:57.768Z,12.90
2018-07-08T02:42:46.923Z,12.90
2018-07-08T02:45:23.131Z,12.80
2018-07-08T02:48:02.527Z,12.70
2018-07-08T02:50:44.220Z,12.60
2018-07-08T02:53:21.660Z,12.50
2018-07-08T02:55:59.368Z,12.50
2018-07-08T02:58:38.205Z,12.50
2018-07-08T03:01:37.329Z,12.50
2018-07-08T03:04:15.254Z,12.40
2018-07-08T03:06:50.478Z,12.40
2018-07-08T03:09:26.306Z,12.40
2018-07-08T03:12:02.697Z,12.30
2018-07-08T03:14:47.560Z,12.30
2018-07-08T03:17:29.041Z,12.20
2018-07-08T03:20:07.770Z,12.20
2018-07-08T03:22:48.697Z,12.20
2018-07-08T03:28:04.712Z,12.20
2018-07-08T03:30:40.102Z,12.20
2018-07-08T03:33:16.658Z,12.20
2018-07-08T03:35:53.296Z,12.30
2018-07-08T03:38:28.697Z,12.30
2018-07-08T03:41:04.606Z,12.40
2018-07-08T03:43:42.853Z,12.40
2018-07-08T03:46:19.731Z,12.50
2018-07-08T03:48:54.263Z,12.60
2018-07-08T03:51:30.380Z,12.60
2018-07-08T03:54:34.433Z,12.60
2018-07-08T03:57:15.176Z,12.60
2018-07-08T03:59:56.543Z,12.60
2018-07-08T04:02:39.843Z,12.60
2018-07-08T04:05:16.344Z,12.60
2018-07-08T04:07:58.921Z,12.70
2018-07-08T04:10:34.124Z,12.80
2018-07-08T04:13:12.000Z,12.80
2018-07-08T04:18:32.026Z,12.80
2018-07-08T04:21:10.035Z,12.90
2018-07-08T04:23:47.260Z,13.00
2018-07-08T04:26:27.007Z,13.00
2018-07-08T04:29:04.496Z,13.10
2018-07-08T04:31:51.195Z,13.10
2018-07-08T04:34:33.470Z,13.10
2018-07-08T04:37:17.592Z,13.20
2018-07-08T04:39:56.259Z,13.20
2018-07-08T04:42:32.521Z,13.20
2018-07-08T04:45:16.658Z,13.30
2018-07-08T04:47:58.615Z,13.40
2018-07-08T04:50:37.264Z,13.40
2018-07-08T04:53:12.936Z,13.40
2018-07-08T04:55:47.963Z,13.40
2018-07-08T04:58:25.321Z,13.50
2018-07-08T05:01:02.673Z,13.50
2018-07-08T05:03:38.147Z,13.60
2018-07-08T05:06:14.383Z,13.70
2018-07-08T05:08:50.743Z,13.80
2018-07-08T05:11:27.561Z,14.00
2018-07-08T05:14:07.300Z,14.00
2018-07-08T05:16:43.816Z,14.10
2018-07-08T05:19:26.424Z,14.00
2018-07-08T05:22:03.213Z,14.00
2018-07-08T05:24:51.301Z,14.20
2018-07-08T05:27:30.119Z,14.30
2018-07-08T05:30:07.729Z,14.30
2018-07-08T05:32:46.725Z,14.40
2018-07-08T05:35:28.085Z,14.50
2018-07-08T05:38:07.585Z,14.50
2018-07-08T05:40:43.979Z,14.50
2018-07-08T05:43:20.786Z,14.60
2018-07-08T05:45:56.100Z,14.60
2018-07-08T05:48:34.459Z,14.70
2018-07-08T05:51:20.272Z,14.80
2018-07-08T05:53:58.100Z,14.80
2018-07-08T05:56:33.272Z,15.00
2018-07-08T05:59:08.233Z,15.30
2018-07-08T06:01:46.157Z,15.30
2018-07-08T06:04:33.649Z,15.30
2018-07-08T06:07:10.402Z,15.30
2018-07-08T06:09:51.305Z,15.50
2018-07-08T06:12:27.692Z,15.70
2018-07-08T06:15:09.373Z,16.10
2018-07-08T06:17:45.693Z,16.10
2018-07-08T06:20:23.870Z,15.90
2018-07-08T06:22:58.801Z,15.90
2018-07-08T06:25:35.525Z,15.80
2018-07-08T06:28:13.788Z,15.90
2018-07-08T06:30:51.952Z,16.00
2018-07-08T06:33:28.920Z,16.00
2018-07-08T06:36:12.675Z,15.90
2018-07-08T06:38:51.769Z,15.90
2018-07-08T06:41:27.808Z,15.90
2018-07-08T06:44:03.043Z,15.90
2018-07-08T06:46:47.216Z,16.00
2018-07-08T06:49:26.632Z,16.10
2018-07-08T06:52:05.232Z,16.10
2018-07-08T06:54:44.644Z,16.30
2018-07-08T06:57:20.560Z,16.20
2018-07-08T07:00:08.823Z,16.30
2018-07-08T07:02:45.585Z,16.50
2018-07-08T07:05:21.746Z,16.50
2018-07-08T07:07:58.351Z,16.70
2018-07-08T07:10:35.029Z,16.90
2018-07-08T07:13:09.121Z,16.70
2018-07-08T07:15:47.936Z,16.60
2018-07-08T07:18:24.502Z,16.90
2018-07-08T07:21:03.857Z,17.10
2018-07-08T07:23:41.431Z,16.90
2018-07-08T07:26:17.920Z,17.10
2018-07-08T07:28:55.526Z,17.20
2018-07-08T07:31:43.386Z,17.40
2018-07-08T07:34:20.550Z,17.40
2018-07-08T07:36:57.543Z,17.40
2018-07-08T07:39:32.428Z,17.30
2018-07-08T07:42:12.394Z,17.50
2018-07-08T07:44:51.615Z,17.70
2018-07-08T07:47:29.263Z,17.90
2018-07-08T07:50:05.701Z,17.60
2018-07-08T07:52:48.905Z,17.40
2018-07-08T07:55:24.500Z,17.20
2018-07-08T07:58:01.722Z,17.10
2018-07-08T08:00:38.783Z,17.40
2018-07-08T08:03:13.551Z,17.70
2018-07-08T08:05:48.365Z,17.70
2018-07-08T08:08:25.971Z,17.70
2018-07-08T08:11:06.075Z,17.30
2018-07-08T08:13:51.923Z,17.30
2018-07-08T08:16:27.915Z,17.50
2018-07-08T08:19:09.492Z,17.70
2018-07-08T08:21:51.807Z,18.00
2018-07-08T08:24:33.095Z,18.30
2018-07-08T08:27:09.091Z,18.30
2018-07-08T08:29:46.137Z,18.20
2018-07-08T08:32:22.783Z,18.20
2018-07-08T08:35:06.509Z,18.40
2018-07-08T08:37:44.571Z,18.30
2018-07-08T08:40:22.610Z,18.50
2018-07-08T08:43:17.375Z,18.10
2018-07-08T08:46:01.631Z,18.20
2018-07-08T08:48:43.023Z,18.50
2018-07-08T08:51:20.092Z,18.70
2018-07-08T08:54:04.257Z,18.90
2018-07-08T08:56:49.188Z,19.10
2018-07-08T08:59:27.501Z,19.10
2018-07-08T09:02:07.134Z,19.20
2018-07-08T09:04:46.038Z,19.10
2018-07-08T09:07:25.691Z,19.20
2018-07-08T09:10:11.878Z,19.20
2018-07-08T09:12:50.638Z,19.40
2018-07-08T09:15:27.185Z,19.50
2018-07-08T09:18:07.148Z,19.40
2018-07-08T09:20:42.408Z,19.60
2018-07-08T09:23:18.427Z,19.70
2018-07-08T09:25:54.379Z,19.70
2018-07-08T09:28:30.259Z,19.70
2018-07-08T09:31:07.248Z,19.80
2018-07-08T09:33:42.817Z,19.90
2018-07-08T09:36:18.539Z,19.80
2018-07-08T09:39:12.897Z,20.00
2018-07-08T09:41:54.616Z,20.10
2018-07-08T09:44:32.233Z,20.40
2018-07-08T09:47:12.649Z,20.10
2018-07-08T09:49:47.719Z,20.30
2018-07-08T09:52:24.054Z,20.50
2018-07-08T09:54:59.091Z,20.50
2018-07-08T09:57:35.918Z,20.50
2018-07-08T10:00:16.376Z,20.60
2018-07-08T10:02:58.640Z,20.60
2018-07-08T10:05:35.443Z,20.90
2018-07-08T10:08:13.166Z,20.80
2018-07-08T10:10:50.754Z,20.80
2018-07-08T10:13:24.984Z,21.00
2018-07-08T10:16:04.585Z,21.30
2018-07-08T10:18:40.799Z,21.40
2018-07-08T10:23:57.467Z,21.40
2018-07-08T10:26:39.073Z,21.50
2018-07-08T10:29:20.115Z,21.50
2018-07-08T10:31:55.496Z,21.60
2018-07-08T10:34:31.666Z,21.60
2018-07-08T10:37:06.474Z,21.50
2018-07-08T10:39:40.786Z,21.50
2018-07-08T10:42:15.277Z,21.60
2018-07-08T10:44:50.867Z,21.60
2018-07-08T10:47:26.776Z,21.70
2018-07-08T10:50:04.530Z,21.90
2018-07-08T10:55:15.179Z,22.30
2018-07-08T10:57:58.629Z,22.10
2018-07-08T11:00:34.088Z,22.20
2018-07-08T11:03:10.425Z,22.30
2018-07-08T11:05:45.675Z,22.30
2018-07-08T11:08:25.685Z,22.30
2018-07-08T11:11:00.819Z,22.40
2018-07-08T11:13:38.177Z,22.40
2018-07-08T11:16:16.777Z,22.30
2018-07-08T11:18:52.226Z,22.60
2018-07-08T11:21:30.279Z,22.80
2018-07-08T11:24:05.032Z,22.90
2018-07-08T11:26:40.458Z,23.00
2018-07-08T11:29:18.068Z,22.90
2018-07-08T11:31:55.664Z,23.00
2018-07-08T11:34:32.560Z,23.20
2018-07-08T11:37:08.302Z,23.20
2018-07-08T11:39:44.685Z,23.40
2018-07-08T11:42:22.258Z,23.50
2018-07-08T11:45:00.905Z,23.40
2018-07-08T11:47:37.117Z,23.60
2018-07-08T11:50:13.137Z,23.50
2018-07-08T11:52:50.360Z,23.40
2018-07-08T11:55:29.122Z,23.70
2018-07-08T11:58:04.753Z,23.70
2018-07-08T12:00:40.860Z,24.10
2018-07-08T12:03:15.735Z,24.40
2018-07-08T12:05:55.491Z,24.40
2018-07-08T12:08:32.617Z,24.40
2018-07-08T12:11:10.913Z,24.60
2018-07-08T12:13:46.605Z,24.80
2018-07-08T12:16:21.393Z,25.00
2018-07-08T12:18:56.165Z,25.50
2018-07-08T12:21:36.609Z,25.90
2018-07-08T12:24:17.417Z,26.30
2018-07-08T12:26:55.620Z,26.40
2018-07-08T12:29:34.398Z,26.60
2018-07-08T12:32:09.689Z,27.20
2018-07-08T12:34:45.947Z,27.80
2018-07-08T12:37:25.176Z,28.10
2018-07-08T12:40:00.117Z,28.80
2018-07-08T12:42:38.488Z,29.00
2018-07-08T12:45:14.817Z,29.90
2018-07-08T12:47:49.179Z,29.80
2018-07-08T12:53:09.893Z,29.30
2018-07-08T12:55:46.388Z,29.40
2018-07-08T12:58:21.954Z,29.50
2018-07-08T13:00:57.510Z,29.40
2018-07-08T13:03:33.153Z,29.80
2018-07-08T13:06:08.232Z,29.70
2018-07-08T13:08:43.402Z,30.10
2018-07-08T13:11:17.728Z,30.30
2018-07-08T13:13:52.984Z,30.20
2018-07-08T13:16:27.896Z,30.70
2018-07-08T13:19:02.164Z,30.20
2018-07-08T13:21:38.783Z,31.00
2018-07-08T13:24:19.484Z,31.10
2018-07-08T13:26:55.412Z,31.80
2018-07-08T13:32:05.995Z,32.30
2018-07-08T13:34:40.616Z,32.20
2018-07-08T13:37:15.895Z,32.50
2018-07-08T13:39:51.444Z,32.50
2018-07-08T13:42:25.936Z,32.90
2018-07-08T13:45:01.312Z,32.80
2018-07-08T13:47:35.607Z,33.70
2018-07-08T13:50:12.250Z,33.50
2018-07-08T13:52:47.129Z,32.60
2018-07-08T13:55:23.619Z,32.90
2018-07-08T13:57:58.686Z,32.80
2018-07-08T14:00:34.075Z,32.40
2018-07-08T14:03:09.632Z,33.10
2018-07-08T14:05:45.636Z,34.10
2018-07-08T14:08:23.180Z,33.30
2018-07-08T14:10:59.670Z,33.50
2018-07-08T14:13:36.834Z,34.80
2018-07-08T14:16:17.451Z,35.30
2018-07-08T14:18:57.199Z,35.00
2018-07-08T14:21:33.743Z,33.40
2018-07-08T14:24:07.930Z,33.40
2018-07-08T14:26:43.121Z,33.80
2018-07-08T14:29:18.620Z,33.70
2018-07-08T14:31:53.778Z,33.70
2018-07-08T14:34:30.962Z,33.20
2018-07-08T14:37:12.874Z,34.80
2018-07-08T14:39:47.147Z,35.10
2018-07-08T14:45:01.116Z,34.60
2018-07-08T14:47:38.218Z,35.40
2018-07-08T14:50:13.409Z,35.70
2018-07-08T14:52:48.071Z,35.80
2018-07-08T14:55:22.401Z,35.90
2018-07-08T14:57:57.114Z,35.50
2018-07-08T15:00:32.435Z,35.30
2018-07-08T15:03:09.374Z,36.10
2018-07-08T15:05:44.869Z,35.10
2018-07-08T15:08:20.179Z,35.10
2018-07-08T15:11:00.486Z,35.70
2018-07-08T15:13:34.822Z,36.20
2018-07-08T15:16:09.558Z,36.00
2018-07-08T15:18:45.887Z,36.30
2018-07-08T15:21:21.442Z,36.30
2018-07-08T15:24:00.241Z,36.40
2018-07-08T15:26:36.659Z,39.30
2018-07-08T15:29:13.521Z,39.10
2018-07-08T15:31:53.587Z,36.70
2018-07-08T15:34:30.364Z,36.20
2018-07-08T15:37:04.740Z,37.60
2018-07-08T15:42:14.637Z,37.90
2018-07-08T15:44:50.878Z,37.90
2018-07-08T15:47:25.101Z,38.90
2018-07-08T15:49:59.292Z,38.70
2018-07-08T15:55:08.993Z,38.20
2018-07-08T15:57:45.988Z,37.20
2018-07-08T16:00:23.940Z,38.20
2018-07-08T16:03:00.513Z,38.80
2018-07-08T16:08:13.660Z,38.30
2018-07-08T16:10:49.400Z,37.10
2018-07-08T16:13:25.573Z,37.00
2018-07-08T16:18:41.009Z,36.60
2018-07-08T16:21:17.020Z,36.30
2018-07-08T16:23:55.085Z,37.40
2018-07-08T16:26:29.342Z,38.70
2018-07-08T16:29:04.173Z,38.00
2018-07-08T16:31:39.655Z,37.00
2018-07-08T16:34:14.258Z,38.20
2018-07-08T16:36:54.228Z,38.70
2018-07-08T16:39:30.082Z,38.90
2018-07-08T16:42:06.120Z,38.60
2018-07-08T16:44:42.143Z,39.90
2018-07-08T16:47:19.192Z,40.10
2018-07-08T16:49:54.095Z,39.10
2018-07-08T16:52:28.440Z,40.80
2018-07-08T16:55:07.085Z,40.00
2018-07-08T16:57:41.421Z,38.10
2018-07-08T17:00:15.941Z,38.00
2018-07-08T17:02:52.256Z,38.20
2018-07-08T17:05:26.885Z,38.20
2018-07-08T17:08:02.365Z,38.60
2018-07-08T17:10:40.774Z,38.60
2018-07-08T17:13:15.246Z,38.70
2018-07-08T17:15:50.085Z,37.20
2018-07-08T17:18:25.001Z,36.80
2018-07-08T17:21:00.256Z,36.20
2018-07-08T17:23:35.470Z,35.70
2018-07-08T17:26:10.430Z,36.60
2018-07-08T17:28:50.787Z,38.40
2018-07-08T17:31:25.317Z,37.30
2018-07-08T17:33:59.633Z,37.00
2018-07-08T17:36:34.017Z,35.50
2018-07-08T17:39:08.852Z,34.90
2018-07-08T17:41:43.382Z,36.40
2018-07-08T17:44:17.571Z,37.10
2018-07-08T17:46:52.784Z,36.90
2018-07-08T17:49:28.407Z,37.60
2018-07-08T17:52:03.516Z,37.10
2018-07-08T17:54:41.401Z,36.80
2018-07-08T17:57:19.179Z,35.20
2018-07-08T17:59:56.671Z,33.90
2018-07-08T18:02:34.174Z,33.80
2018-07-08T18:05:10.916Z,33.10
2018-07-08T18:07:45.173Z,31.90
2018-07-08T18:10:19.686Z,31.00
2018-07-08T18:12:59.260Z,30.30
2018-07-08T18:15:37.368Z,30.30
2018-07-08T18:18:16.277Z,30.50
2018-07-08T18:20:51.016Z,30.80
2018-07-08T18:23:38.493Z,30.60
2018-07-08T18:26:15.213Z,30.70
2018-07-08T18:28:53.736Z,30.90
2018-07-08T18:31:28.159Z,31.20
2018-07-08T18:34:11.138Z,30.60
2018-07-08T18:36:47.191Z,29.90
2018-07-08T18:39:23.154Z,28.50
2018-07-08T18:41:58.290Z,26.70
2018-07-08T18:44:33.780Z,25.70
2018-07-08T18:47:07.996Z,25.10
2018-07-08T18:49:43.416Z,24.80
2018-07-08T18:52:21.063Z,24.40
2018-07-08T18:54:56.944Z,24.10
2018-07-08T18:57:32.457Z,23.80
2018-07-08T19:00:08.505Z,23.50
2018-07-08T19:02:42.935Z,23.40
2018-07-08T19:05:18.138Z,23.10
2018-07-08T19:07:52.807Z,22.90
2018-07-08T19:10:28.719Z,22.80
2018-07-08T19:13:07.288Z,22.60
2018-07-08T19:15:42.125Z,22.40
2018-07-08T19:18:17.148Z,22.10
2018-07-08T19:20:52.250Z,22.00
2018-07-08T19:23:29.816Z,22.00
2018-07-08T19:26:05.777Z,21.80
2018-07-08T19:31:14.680Z,21.50
2018-07-08T19:36:25.995Z,21.20
2018-07-08T19:39:06.549Z,21.10
2018-07-08T19:41:51.892Z,21.10
2018-07-08T19:44:30.046Z,20.90
2018-07-08T19:47:04.985Z,20.70
2018-07-08T19:49:42.715Z,20.60
2018-07-08T19:52:19.643Z,20.60
2018-07-08T19:54:54.792Z,20.50
2018-07-08T19:57:29.604Z,20.30
2018-07-08T20:00:07.057Z,20.20
2018-07-08T20:02:47.347Z,20.10
2018-07-08T20:05:23.118Z,20.10
2018-07-08T20:10:43.429Z,19.90
2018-07-08T20:13:19.063Z,19.80
2018-07-08T20:15:54.288Z,19.60
2018-07-08T20:18:32.759Z,19.50
2018-07-08T20:21:07.181Z,19.40
2018-07-08T20:23:42.168Z,19.30
2018-07-08T20:26:17.044Z,19.20
2018-07-08T20:28:53.753Z,19.10
2018-07-08T20:31:30.866Z,19.10
2018-07-08T20:34:07.073Z,19.00
2018-07-08T20:36:44.716Z,18.90
2018-07-08T20:39:22.945Z,18.80
2018-07-08T20:41:57.249Z,18.70
2018-07-08T20:44:32.370Z,18.60
2018-07-08T20:47:06.708Z,18.60
2018-07-08T20:49:41.516Z,18.50
2018-07-08T20:52:17.582Z,18.50
2018-07-08T20:57:31.941Z,18.30
2018-07-08T21:00:06.996Z,18.30
2018-07-08T21:02:44.188Z,18.20
2018-07-08T21:05:19.987Z,18.10
2018-07-08T21:07:55.408Z,18.10
2018-07-08T21:10:30.093Z,18.00
2018-07-08T21:13:04.424Z,18.00
2018-07-08T21:15:38.671Z,17.80
2018-07-08T21:18:14.889Z,17.80
2018-07-08T21:20:49.418Z,17.80
2018-07-08T21:23:23.901Z,17.70
2018-07-08T21:25:59.008Z,17.60
2018-07-08T21:28:33.362Z,17.60
2018-07-08T21:31:09.531Z,17.50
2018-07-08T21:33:45.439Z,17.40
2018-07-08T21:36:20.379Z,17.30
2018-07-08T21:38:59.940Z,17.20
2018-07-08T21:41:36.570Z,17.20
2018-07-08T21:44:14.353Z,17.10
2018-07-08T21:46:56.035Z,17.10
2018-07-08T21:49:34.515Z,17.00
2018-07-08T21:52:10.023Z,16.90
2018-07-08T21:54:45.342Z,16.90
2018-07-08T21:57:21.624Z,16.80
2018-07-08T21:59:56.801Z,16.70
2018-07-08T22:02:32.219Z,16.70
2018-07-08T22:05:07.926Z,16.60
2018-07-08T22:07:48.493Z,16.60
2018-07-08T22:10:24.989Z,16.50
2018-07-08T22:13:00.830Z,16.40
2018-07-08T22:15:35.202Z,16.40
2018-07-08T22:18:09.366Z,16.30
2018-07-08T22:20:48.916Z,16.20
2018-07-08T22:23:23.164Z,16.20
2018-07-08T22:25:58.946Z,16.10
2018-07-08T22:28:35.341Z,16.00
2018-07-08T22:31:10.084Z,15.90
2018-07-08T22:33:45.458Z,15.90
2018-07-08T22:36:21.760Z,15.80
2018-07-08T22:38:58.415Z,15.80
2018-07-08T22:41:34.207Z,15.70
2018-07-08T22:44:15.021Z,15.60
2018-07-08T22:46:51.871Z,15.60
2018-07-08T22:49:27.271Z,15.50
2018-07-08T22:52:08.039Z,15.50
2018-07-08T22:54:42.461Z,15.40
2018-07-08T22:57:17.944Z,15.40
2018-07-08T23:00:06.601Z,15.30
2018-07-08T23:02:43.376Z,15.20
2018-07-08T23:05:20.794Z,15.20
2018-07-08T23:07:58.473Z,15.20
2018-07-08T23:10:35.014Z,15.10
2018-07-08T23:13:10.557Z,15.00
2018-07-08T23:15:45.049Z,14.90
2018-07-08T23:18:19.462Z,14.90
2018-07-08T23:20:55.938Z,14.80
2018-07-08T23:23:30.892Z,14.80
2018-07-08T23:26:06.839Z,14.80
2018-07-08T23:28:42.648Z,14.70
2018-07-08T23:31:20.954Z,14.60
2018-07-08T23:33:57.002Z,14.60
2018-07-08T23:36:32.852Z,14.60
2018-07-08T23:39:08.680Z,14.50
2018-07-08T23:41:43.173Z,14.50
2018-07-08T23:44:20.864Z,14.40
2018-07-08T23:46:57.243Z,14.40
2018-07-08T23:49:32.123Z,14.30
2018-07-08T23:52:08.043Z,14.30
2018-07-08T23:54:46.241Z,14.30
2018-07-08T23:57:21.343Z,14.30
2018-07-08T23:59:56.325Z,14.30
